Time;durP1;ratioP1;P1;durP2;ratioP2;P2;SDS_P1;SDS_P2;PMS_P1;PMS_P2;Temp;Humidity;BMP_temperature;BMP_pressure;BME280_temperature;BME280_humidity;BME280_pressure;Samples;Min_cycle;Max_cycle;Signal;HPM_P1;HPM_P2
2022/04/14 00:01:34;;;;;;;0.55;0.55;;;;;;;23.45;13.48;101256.78;5036836;28;20435;-79
2022/04/14 00:03:59;;;;;;;0.60;0.60;;;;;;;23.47;13.63;101251.06;5051883;28;20468;-79
2022/04/14 00:06:24;;;;;;;0.98;0.50;;;;;;;23.46;13.63;101244.78;5036872;28;20069;-79
2022/04/14 00:08:52;;;;;;;0.68;0.60;;;;;;;23.46;13.54;101252.13;5036950;28;20021;-79
2022/04/14 00:11:17;;;;;;;0.50;0.50;;;;;;;23.45;13.45;101259.50;5036705;28;20479;-79
2022/04/14 00:13:43;;;;;;;0.52;0.50;;;;;;;23.47;13.54;101248.34;5037376;28;20025;-79
2022/04/14 00:16:08;;;;;;;0.50;0.50;;;;;;;23.45;13.44;101243.13;5036445;28;20025;-79
2022/04/14 00:18:33;;;;;;;0.60;0.60;;;;;;;23.45;13.46;101232.22;5035106;28;20030;-79
2022/04/14 00:20:59;;;;;;;0.68;0.68;;;;;;;23.45;13.59;101229.50;5036728;28;20036;-79
2022/04/14 00:23:25;;;;;;;0.50;0.50;;;;;;;23.44;13.83;101227.84;5036856;28;20021;-79
2022/04/14 00:25:51;;;;;;;0.43;0.43;;;;;;;23.44;13.46;101234.13;5036437;28;20084;-79
2022/04/14 00:28:17;;;;;;;0.43;0.43;;;;;;;23.44;13.68;101228.69;5036037;28;20377;-79
2022/04/14 00:30:42;;;;;;;0.52;0.52;;;;;;;23.43;13.85;101223.47;5036171;28;20032;-79
2022/04/14 00:33:08;;;;;;;0.60;0.60;;;;;;;23.42;13.71;101219.94;5031671;28;20101;-79
2022/04/14 00:35:33;;;;;;;0.40;0.40;;;;;;;23.42;13.61;101217.19;5016413;28;20025;-79
2022/04/14 00:37:58;;;;;;;0.68;0.60;;;;;;;23.42;13.85;101219.06;5016526;28;20440;-79
2022/04/14 00:40:24;;;;;;;0.40;0.40;;;;;;;23.40;13.72;101216.63;5015857;28;20038;-79
2022/04/14 00:42:49;;;;;;;0.57;0.50;;;;;;;23.38;13.72;101213.31;5016096;28;20101;-79
2022/04/14 00:45:15;;;;;;;0.47;0.47;;;;;;;23.40;13.95;101211.19;5016042;28;20037;-79
2022/04/14 00:47:41;;;;;;;0.43;0.43;;;;;;;23.39;13.61;101209.50;5016128;28;20026;-79
2022/04/14 00:50:07;;;;;;;0.50;0.50;;;;;;;23.39;13.71;101214.97;5016212;28;20350;-79
2022/04/14 00:52:32;;;;;;;0.40;0.40;;;;;;;23.39;13.62;101219.59;5016424;28;20097;-79
2022/04/14 00:54:58;;;;;;;0.50;0.50;;;;;;;23.39;13.81;101212.25;5016164;28;20488;-79
2022/04/14 00:57:23;;;;;;;0.57;0.57;;;;;;;23.39;13.60;101214.97;5015900;28;20036;-79
2022/04/14 00:59:48;;;;;;;0.43;0.43;;;;;;;23.39;13.84;101217.69;5014642;28;20045;-79
2022/04/14 01:02:14;;;;;;;0.80;0.55;;;;;;;23.40;13.84;101207.59;5015071;28;20029;-79
2022/04/14 01:04:39;;;;;;;0.50;0.50;;;;;;;23.40;13.86;101207.59;5015143;28;20471;-79
2022/04/14 01:07:08;;;;;;;0.90;0.70;;;;;;;23.39;13.79;101209.50;5016027;28;20429;-79
2022/04/14 01:09:34;;;;;;;0.30;0.30;;;;;;;23.33;13.83;101199.59;5015748;28;20037;-79
2022/04/14 01:11:59;;;;;;;0.47;0.47;;;;;;;23.38;13.87;101201.59;5015647;28;20042;-79
2022/04/14 01:14:32;;;;;;;0.73;0.60;;;;;;;23.37;13.86;101208.09;5014265;28;20033;-79
2022/04/14 01:16:59;;;;;;;0.60;0.60;;;;;;;23.36;13.72;101210.00;5014262;28;20029;-79
2022/04/14 01:19:25;;;;;;;0.70;0.70;;;;;;;23.37;13.88;101206.22;5014739;28;20057;-79
2022/04/14 01:21:56;;;;;;;0.50;0.43;;;;;;;23.37;13.78;101200.78;5015758;28;20122;-79
2022/04/14 01:24:22;;;;;;;0.40;0.40;;;;;;;23.36;13.95;101211.94;5015594;28;20172;-79
2022/04/14 01:26:47;;;;;;;0.40;0.40;;;;;;;23.38;13.93;101201.59;5015358;28;20472;-79
2022/04/14 01:29:23;;;;;;;0.68;0.68;;;;;;;23.39;13.68;101198.59;5015339;28;20021;-79
2022/04/14 01:31:49;;;;;;;0.47;0.47;;;;;;;23.35;13.91;101194.75;5015436;28;20021;-79
2022/04/14 01:34:14;;;;;;;0.65;0.40;;;;;;;23.33;13.74;101188.69;5027740;28;20045;-79
2022/04/14 01:36:40;;;;;;;0.47;0.47;;;;;;;23.36;13.98;101198.28;5050264;28;20426;-79
2022/04/14 01:39:05;;;;;;;0.60;0.50;;;;;;;23.35;13.87;101189.28;5034532;28;20437;-79
2022/04/14 01:41:31;;;;;;;0.40;0.40;;;;;;;23.36;13.88;101192.84;5034675;28;20053;-79
2022/04/14 01:43:56;;;;;;;0.70;0.50;;;;;;;23.35;13.78;101191.19;5035098;28;20099;-79
2022/04/14 01:46:21;;;;;;;0.40;0.40;;;;;;;23.34;14.05;101184.91;5034677;28;20472;-79
2022/04/14 01:48:47;;;;;;;0.50;0.50;;;;;;;23.35;13.98;101194.75;5034843;28;20036;-79
2022/04/14 01:51:12;;;;;;;0.40;0.40;;;;;;;23.34;14.06;101190.34;5034482;28;20034;-79
2022/04/14 01:53:38;;;;;;;0.50;0.50;;;;;;;23.34;14.01;101179.44;5034417;28;20040;-79
2022/04/14 01:56:03;;;;;;;0.80;0.40;;;;;;;23.33;13.87;101185.97;5035161;28;20028;-79
2022/04/14 01:58:29;;;;;;;0.35;0.35;;;;;;;23.33;13.89;101188.69;5035523;28;20468;-79
2022/04/14 02:00:54;;;;;;;0.40;0.40;;;;;;;23.33;13.91;101190.59;5036070;28;20025;-79
2022/04/14 02:03:20;;;;;;;0.45;0.40;;;;;;;23.33;14.13;101194.16;5037622;28;20464;-79
2022/04/14 02:05:45;;;;;;;0.70;0.50;;;;;;;23.34;14.06;101184.09;5044512;28;20029;-80
2022/04/14 02:08:10;;;;;;;0.43;0.43;;;;;;;23.36;13.85;101177.28;5037862;28;20100;-79
2022/04/14 02:10:36;;;;;;;0.95;0.60;;;;;;;23.37;13.98;101173.50;5037505;28;20030;-79
2022/04/14 02:13:01;;;;;;;0.57;0.50;;;;;;;23.41;13.93;101184.72;5035908;28;20033;-79
2022/04/14 02:15:27;;;;;;;0.50;0.45;;;;;;;23.43;14.05;101179.81;5034884;28;20036;-79
2022/04/14 02:17:52;;;;;;;0.40;0.40;;;;;;;23.47;13.59;101177.41;5036299;28;20467;-79
2022/04/14 02:20:18;;;;;;;0.47;0.40;;;;;;;23.49;14.00;101192.47;5034816;28;20030;-79
2022/04/14 02:22:43;;;;;;;0.57;0.50;;;;;;;23.51;14.00;101184.00;5034185;28;20025;-79
2022/04/14 02:25:09;;;;;;;0.43;0.43;;;;;;;23.54;13.95;101188.94;5034509;28;20033;-79
2022/04/14 02:27:35;;;;;;;0.40;0.40;;;;;;;23.55;13.97;101180.50;5034943;28;20025;-79
2022/04/14 02:30:00;;;;;;;0.40;0.40;;;;;;;23.60;13.84;101180.56;5034402;28;20051;-79
2022/04/14 02:32:25;;;;;;;0.60;0.43;;;;;;;23.60;14.02;101199.66;5034332;28;20483;-79
2022/04/14 02:34:51;;;;;;;1.05;0.73;;;;;;;23.64;13.74;101194.53;5017820;28;20022;-79
2022/04/14 02:37:16;;;;;;;0.40;0.40;;;;;;;23.66;13.87;101200.53;5014438;28;20026;-79
2022/04/14 02:39:42;;;;;;;0.50;0.50;;;;;;;23.67;13.74;101188.56;5014158;28;20143;-79
2022/04/14 02:42:07;;;;;;;0.50;0.50;;;;;;;23.70;13.88;101189.94;5013378;28;20484;-79
2022/04/14 02:44:32;;;;;;;0.60;0.50;;;;;;;23.71;13.93;101189.69;5012854;28;20483;-79
2022/04/14 02:46:58;;;;;;;0.45;0.40;;;;;;;23.73;13.71;101193.00;5014508;28;20431;-79
2022/04/14 02:49:23;;;;;;;0.40;0.40;;;;;;;23.74;13.76;101194.63;5013337;28;20405;-79
2022/04/14 02:51:49;;;;;;;0.50;0.50;;;;;;;23.75;13.65;101199.03;5014244;28;20415;-79
2022/04/14 02:54:15;;;;;;;0.43;0.40;;;;;;;23.76;13.75;101197.13;5014566;28;20026;-79
2022/04/14 02:56:40;;;;;;;0.40;0.40;;;;;;;23.78;13.55;101198.53;5013342;28;20030;-79
2022/04/14 02:59:06;;;;;;;0.50;0.50;;;;;;;23.80;13.64;101198.25;5014358;28;20026;-79
2022/04/14 03:01:31;;;;;;;1.90;0.70;;;;;;;23.81;13.75;101195.28;5012860;28;20034;-79
2022/04/14 03:03:56;;;;;;;0.40;0.40;;;;;;;23.82;13.94;101193.41;5014036;28;20448;-78
2022/04/14 03:06:22;;;;;;;0.60;0.60;;;;;;;23.84;13.87;101198.59;5012854;28;20084;-79
2022/04/14 03:08:47;;;;;;;0.70;0.50;;;;;;;23.84;13.61;101199.44;5013886;28;20034;-79
2022/04/14 03:11:13;;;;;;;1.08;0.52;;;;;;;23.87;13.85;101203.53;5013859;28;20395;-79
2022/04/14 03:13:39;;;;;;;0.70;0.50;;;;;;;23.87;13.79;101203.53;5012583;28;20048;-78
2022/04/14 03:16:04;;;;;;;0.60;0.50;;;;;;;23.88;13.78;101210.66;5013560;28;20042;-78
2022/04/14 03:18:30;;;;;;;0.52;0.50;;;;;;;23.88;13.69;101216.13;5012629;28;20372;-79
2022/04/14 03:20:55;;;;;;;1.60;0.55;;;;;;;23.90;13.91;101227.59;5016581;28;20346;-79
2022/04/14 03:23:21;;;;;;;0.63;0.50;;;;;;;23.90;13.86;101211.22;5017661;28;20472;-78
2022/04/14 03:25:46;;;;;;;1.02;0.50;;;;;;;23.90;13.97;101203.03;5016473;28;20496;-79
2022/04/14 03:28:12;;;;;;;0.50;0.50;;;;;;;23.92;13.58;101211.78;5017745;28;20026;-79
2022/04/14 03:30:37;;;;;;;1.20;0.70;;;;;;;23.92;13.83;101198.97;5017962;28;20029;-79
2022/04/14 03:33:02;;;;;;;0.50;0.50;;;;;;;23.92;13.72;101201.69;5018658;28;20460;-79
2022/04/14 03:35:28;;;;;;;1.27;0.60;;;;;;;23.92;13.77;101196.25;5037443;28;20025;-79
2022/04/14 03:37:53;;;;;;;0.60;0.60;;;;;;;23.97;13.78;101187.25;5037695;28;20109;-79
2022/04/14 03:40:19;;;;;;;0.40;0.32;;;;;;;23.97;13.78;101181.81;5037259;28;20383;-79
2022/04/14 03:42:44;;;;;;;0.93;0.68;;;;;;;23.96;13.63;101175.53;5037391;28;20472;-79
2022/04/14 03:45:10;;;;;;;0.57;0.57;;;;;;;23.95;13.69;101175.78;5036991;28;20030;-79
2022/04/14 03:47:36;;;;;;;1.73;0.63;;;;;;;23.98;13.75;101183.47;5037379;28;20025;-79
2022/04/14 03:50:02;;;;;;;0.68;0.57;;;;;;;23.96;13.79;101170.06;5037312;28;20066;-79
2022/04/14 03:52:30;;;;;;;0.55;0.50;;;;;;;23.99;13.55;101163.25;5052845;28;20329;-79
2022/04/14 03:54:58;;;;;;;0.60;0.60;;;;;;;24.00;13.55;101160.25;5037733;28;20026;-79
2022/04/14 03:57:24;;;;;;;0.75;0.50;;;;;;;24.02;13.83;101168.19;5035869;28;20029;-79
2022/04/14 03:59:50;;;;;;;0.73;0.63;;;;;;;24.02;13.57;101170.94;5037508;28;20034;-79
2022/04/14 04:02:15;;;;;;;0.50;0.50;;;;;;;24.04;13.61;101170.66;5037875;28;20033;-79
2022/04/14 04:04:41;;;;;;;1.00;0.60;;;;;;;23.98;13.69;101167.06;5037124;28;20052;-78
2022/04/14 04:07:07;;;;;;;0.70;0.50;;;;;;;24.03;13.84;101167.13;5036972;28;20029;-78
2022/04/14 04:09:33;;;;;;;0.40;0.40;;;;;;;24.06;13.89;101174.81;5036846;28;20448;-77
2022/04/14 04:12:00;;;;;;;1.02;0.60;;;;;;;23.41;14.51;101177.34;5037136;28;20025;-77
2022/04/14 04:14:25;;;;;;;0.57;0.57;;;;;;;23.64;14.40;101178.16;5036719;28;20034;-77
2022/04/14 04:16:50;;;;;;;1.77;0.60;;;;;;;23.90;14.39;101176.53;5036416;28;20026;-77
2022/04/14 04:19:16;;;;;;;0.50;0.50;;;;;;;24.04;14.19;101171.50;5035013;28;20490;-78
2022/04/14 04:21:41;;;;;;;0.60;0.50;;;;;;;24.05;13.96;101170.41;5036566;28;20104;-78
2022/04/14 04:24:07;;;;;;;0.40;0.40;;;;;;;24.14;13.91;101171.56;5036834;28;20025;-77
2022/04/14 04:26:33;;;;;;;0.60;0.50;;;;;;;24.12;14.12;101170.22;5036030;28;20026;-76
2022/04/14 04:28:58;;;;;;;0.55;0.55;;;;;;;24.35;13.77;101171.75;5036207;28;20025;-76
2022/04/14 04:31:23;;;;;;;1.00;0.60;;;;;;;24.34;13.81;101175.59;5035902;28;20042;-76
2022/04/14 04:33:51;;;;;;;0.77;0.70;;;;;;;24.47;13.56;101174.31;5030184;28;20022;-77
2022/04/14 04:36:19;;;;;;;0.50;0.50;;;;;;;24.54;13.72;101175.78;5016322;28;20120;-77
2022/04/14 04:38:44;;;;;;;1.23;0.40;;;;;;;24.63;13.53;101170.66;4998773;28;20042;-77
2022/04/14 04:41:10;;;;;;;0.55;0.50;;;;;;;24.72;13.45;101176.44;5016010;28;20049;-77
2022/04/14 04:43:35;;;;;;;0.50;0.47;;;;;;;24.68;13.69;101176.16;5016371;28;20026;-77
2022/04/14 04:46:01;;;;;;;0.60;0.60;;;;;;;24.81;13.58;101183.06;5016688;28;20030;-77
2022/04/14 04:48:26;;;;;;;0.40;0.40;;;;;;;24.77;13.62;101175.63;5016114;28;20049;-76
2022/04/14 04:50:52;;;;;;;0.50;0.50;;;;;;;24.85;13.29;101176.00;5016258;28;20104;-77
2022/04/14 04:53:17;;;;;;;0.93;0.60;;;;;;;25.02;13.33;101178.53;5016075;28;20026;-77
2022/04/14 04:55:43;;;;;;;0.60;0.60;;;;;;;24.87;13.43;101171.06;5016113;28;20410;-77
2022/04/14 04:58:08;;;;;;;0.65;0.50;;;;;;;24.91;13.46;101169.44;5016340;28;20033;-78
2022/04/14 05:00:34;;;;;;;2.40;0.52;;;;;;;24.98;13.33;101168.41;5016494;28;20022;-76
2022/04/14 05:02:59;;;;;;;1.17;0.55;;;;;;;24.99;13.13;101175.50;5016503;28;20026;-77
2022/04/14 05:05:25;;;;;;;0.60;0.60;;;;;;;25.09;13.39;101172.81;5015984;28;20026;-77
2022/04/14 05:07:50;;;;;;;0.60;0.60;;;;;;;25.16;13.38;101161.63;5015863;28;20037;-77
2022/04/14 05:10:17;;;;;;;0.60;0.60;;;;;;;25.18;13.31;101167.66;5015840;28;20447;-77
2022/04/14 05:12:42;;;;;;;0.98;0.60;;;;;;;25.23;13.09;101165.78;5015815;28;20049;-77
2022/04/14 05:15:08;;;;;;;0.60;0.60;;;;;;;25.25;13.39;101166.38;5015224;28;20450;-78
2022/04/14 05:17:33;;;;;;;1.77;0.60;;;;;;;25.26;13.16;101156.25;5015346;28;20022;-77
2022/04/14 05:19:59;;;;;;;1.05;0.50;;;;;;;25.28;13.02;101157.63;5013951;28;20030;-76
2022/04/14 05:22:24;;;;;;;1.20;0.85;;;;;;;25.21;13.20;101151.53;5015279;28;20037;-76
2022/04/14 05:24:50;;;;;;;1.65;0.93;;;;;;;25.29;13.29;101156.53;5015636;28;20083;-77
2022/04/14 05:27:15;;;;;;;1.13;0.80;;;;;;;25.21;13.62;101153.44;5015049;28;20026;-76
2022/04/14 05:29:41;;;;;;;3.42;1.08;;;;;;;25.16;13.49;101145.22;5013462;28;20037;-76
2022/04/14 05:32:07;;;;;;;2.97;1.10;;;;;;;25.19;13.68;101148.25;5014722;28;20026;-77
2022/04/14 05:34:33;;;;;;;2.50;1.20;;;;;;;25.04;13.57;101140.81;5023517;28;20120;-77
2022/04/14 05:36:58;;;;;;;2.50;1.30;;;;;;;25.12;13.57;101150.41;5037495;28;20143;-78
2022/04/14 05:39:24;;;;;;;1.98;1.02;;;;;;;25.09;13.57;101145.47;5035612;28;20238;-77
2022/04/14 05:41:49;;;;;;;1.55;1.02;;;;;;;25.04;13.88;101153.66;5034974;28;20048;-76
2022/04/14 05:44:16;;;;;;;3.97;1.08;;;;;;;25.14;13.93;101144.69;5034412;28;20029;-77
2022/04/14 05:46:42;;;;;;;2.22;1.20;;;;;;;25.13;13.63;101143.88;5035214;28;20064;-77
2022/04/14 05:49:07;;;;;;;1.70;1.00;;;;;;;25.08;13.57;101132.91;5033380;28;20026;-76
2022/04/14 05:51:33;;;;;;;2.20;1.17;;;;;;;25.06;14.03;101129.59;5036137;28;20076;-76
2022/04/14 05:53:58;;;;;;;2.08;1.30;;;;;;;25.02;14.13;101128.47;5034698;28;20033;-76
2022/04/14 05:56:24;;;;;;;2.15;0.80;;;;;;;24.99;13.89;101126.28;5034766;28;20029;-76
2022/04/14 05:58:55;;;;;;;1.83;1.00;;;;;;;25.00;14.26;101127.94;5034439;28;20025;-76
2022/04/14 06:01:21;;;;;;;1.20;0.88;;;;;;;24.99;13.94;101121.66;5035091;28;20034;-75
2022/04/14 06:03:46;;;;;;;1.83;0.93;;;;;;;25.00;13.98;101125.19;5033742;28;20056;-77
2022/04/14 06:06:13;;;;;;;3.50;1.00;;;;;;;25.04;14.00;101120.84;5035344;28;20104;-77
2022/04/14 06:08:39;;;;;;;4.35;1.00;;;;;;;25.09;14.21;101120.84;5033633;28;20034;-76
2022/04/14 06:11:05;;;;;;;4.22;1.10;;;;;;;25.03;14.22;101121.94;5035431;28;20109;-78
2022/04/14 06:13:31;;;;;;;2.55;0.98;;;;;;;25.04;14.47;101118.09;5035564;28;20372;-77
2022/04/14 06:15:57;;;;;;;1.50;0.73;;;;;;;25.07;14.40;101118.38;5033943;28;20029;-76
2022/04/14 06:18:22;;;;;;;0.88;0.70;;;;;;;25.09;14.29;101115.38;5036397;28;20022;-78
2022/04/14 06:20:49;;;;;;;1.70;0.70;;;;;;;25.09;14.46;101112.66;5034946;28;20033;-80
2022/04/14 06:23:16;;;;;;;2.10;1.20;;;;;;;25.03;14.36;101111.81;5035177;28;20080;-77
2022/04/14 06:25:45;;;;;;;3.08;1.05;;;;;;;25.08;14.60;101109.09;5035372;28;20033;-78
2022/04/14 06:28:10;;;;;;;2.00;0.98;;;;;;;25.08;14.67;101108.28;5035730;28;20025;-78
2022/04/14 06:30:36;;;;;;;3.50;1.00;;;;;;;25.08;14.47;101103.63;5035213;28;20108;-77
2022/04/14 06:33:02;;;;;;;1.73;0.80;;;;;;;25.06;15.00;101099.50;5034914;28;20487;-76
2022/04/14 06:35:28;;;;;;;1.35;0.65;;;;;;;25.06;14.89;101096.78;5018839;28;20085;-77
2022/04/14 06:37:54;;;;;;;0.88;0.50;;;;;;;25.08;14.89;101087.22;5014090;28;20032;-77
2022/04/14 06:40:20;;;;;;;1.35;0.50;;;;;;;25.09;15.00;101085.31;5015042;28;20112;-78
2022/04/14 06:42:45;;;;;;;3.42;0.77;;;;;;;25.10;15.00;101089.69;5015263;28;20030;-78
2022/04/14 06:45:11;;;;;;;0.50;0.40;;;;;;;25.09;14.76;101088.03;5015221;28;20060;-77
2022/04/14 06:47:36;;;;;;;0.43;0.35;;;;;;;25.04;15.17;101074.34;5015336;28;20034;-77
2022/04/14 06:50:02;;;;;;;0.75;0.60;;;;;;;25.08;14.88;101081.75;5014980;28;20033;-77
2022/04/14 06:52:27;;;;;;;1.17;0.80;;;;;;;25.01;15.08;101081.19;5014404;28;20376;-76
2022/04/14 06:54:53;;;;;;;1.10;0.60;;;;;;;25.09;15.26;101077.09;5014657;28;20021;-78
2022/04/14 06:57:20;;;;;;;1.42;0.70;;;;;;;25.11;15.34;101075.75;5016200;28;20030;-79
2022/04/14 06:59:46;;;;;;;1.25;0.55;;;;;;;25.12;15.08;101065.63;5015108;28;20036;-79
2022/04/14 07:02:11;;;;;;;0.80;0.63;;;;;;;25.12;14.94;101071.09;5015981;28;20120;-79
2022/04/14 07:04:37;;;;;;;1.27;0.75;;;;;;;25.14;15.19;101060.69;5015317;28;20034;-78
2022/04/14 07:07:02;;;;;;;1.88;0.80;;;;;;;25.08;14.79;101064.53;5016653;28;20495;-79
2022/04/14 07:09:34;;;;;;;2.08;1.08;;;;;;;25.09;14.98;101057.97;5014193;28;20026;-76
2022/04/14 07:12:02;;;;;;;2.22;1.00;;;;;;;25.12;14.95;101050.03;5014213;28;20029;-77
2022/04/14 07:14:28;;;;;;;2.67;1.38;;;;;;;25.15;15.30;101050.56;5014289;28;20026;-77
2022/04/14 07:16:54;;;;;;;2.92;0.80;;;;;;;25.14;15.21;101052.50;5013705;28;20052;-76
2022/04/14 07:19:20;;;;;;;1.85;0.90;;;;;;;25.14;15.27;101049.75;5013630;28;20034;-77
2022/04/14 07:21:46;;;;;;;2.15;0.90;;;;;;;25.16;15.14;101054.97;5014277;28;20457;-76
2022/04/14 07:24:11;;;;;;;2.97;1.00;;;;;;;25.11;15.32;101051.13;5015460;28;20026;-78
2022/04/14 07:26:37;;;;;;;3.97;1.02;;;;;;;25.01;15.56;101048.38;5015529;28;20476;-77
2022/04/14 07:29:03;;;;;;;3.72;1.08;;;;;;;24.98;15.42;101050.81;5016338;28;20468;-76
2022/04/14 07:31:31;;;;;;;2.05;0.93;;;;;;;25.07;15.73;101051.94;5015488;28;20025;-77
2022/04/14 07:33:59;;;;;;;2.67;1.00;;;;;;;25.07;15.38;101051.94;5016443;28;20033;-78
2022/04/14 07:36:27;;;;;;;4.13;1.02;;;;;;;25.04;15.28;101047.84;5034819;28;20483;-77
2022/04/14 07:38:53;;;;;;;1.73;0.70;;;;;;;25.08;15.40;101043.47;5034603;28;20070;-77
2022/04/14 07:41:18;;;;;;;1.42;0.70;;;;;;;25.11;15.29;101047.56;5034206;28;20107;-76
2022/04/14 07:43:44;;;;;;;1.85;0.70;;;;;;;25.11;15.18;101047.56;5034745;28;20033;-77
2022/04/14 07:46:09;;;;;;;1.27;0.75;;;;;;;25.10;15.24;101049.47;5035894;28;20348;-77
2022/04/14 07:48:35;;;;;;;1.65;0.68;;;;;;;25.11;15.12;101044.81;5034671;28;20022;-79
2022/04/14 07:51:01;;;;;;;1.55;0.70;;;;;;;25.11;15.04;101045.66;5034965;28;20095;-77
2022/04/14 07:53:27;;;;;;;1.65;0.70;;;;;;;25.12;15.05;101049.22;5034425;28;20036;-76
2022/04/14 07:55:53;;;;;;;2.60;0.90;;;;;;;25.09;15.22;101039.66;5034202;28;20056;-76
2022/04/14 07:58:20;;;;;;;1.70;0.65;;;;;;;25.11;15.12;101042.09;5034394;28;20057;-75
2022/04/14 08:00:46;;;;;;;0.80;0.60;;;;;;;25.11;15.25;101044.81;5033386;28;20034;-75
2022/04/14 08:03:11;;;;;;;2.88;1.00;;;;;;;25.10;15.20;101041.28;5032141;28;20104;-76
2022/04/14 08:05:43;;;;;;;1.48;0.80;;;;;;;25.12;15.05;101043.75;5034540;28;20033;-77
2022/04/14 08:08:10;;;;;;;1.85;0.80;;;;;;;25.10;15.12;101043.19;5038322;28;20057;-78
2022/04/14 08:10:36;;;;;;;2.38;1.17;;;;;;;25.11;15.17;101036.63;5037420;28;20203;-76
2022/04/14 08:13:02;;;;;;;1.67;0.90;;;;;;;25.11;14.98;101042.09;5035969;28;20032;-76
2022/04/14 08:15:30;;;;;;;1.42;0.80;;;;;;;25.05;15.16;101032.25;5035934;28;20025;-77
2022/04/14 08:17:56;;;;;;;2.08;0.68;;;;;;;25.10;14.98;101035.81;5037361;28;20030;-78
2022/04/14 08:20:22;;;;;;;1.35;0.75;;;;;;;25.08;14.88;101037.19;5038770;28;20026;-76
2022/04/14 08:22:48;;;;;;;1.25;0.70;;;;;;;25.11;14.93;101037.47;5038334;28;20022;-77
2022/04/14 08:25:22;;;;;;;1.48;0.60;;;;;;;25.12;15.12;101039.09;5038421;28;20045;-76
2022/04/14 08:27:48;;;;;;;2.47;0.85;;;;;;;25.07;15.70;101041.81;5053823;28;20060;-77
2022/04/14 08:30:14;;;;;;;1.85;0.70;;;;;;;25.12;15.47;101035.53;5038276;28;20025;-77
2022/04/14 08:32:40;;;;;;;2.05;0.90;;;;;;;25.15;15.27;101034.16;5036957;28;20029;-77
2022/04/14 08:35:05;;;;;;;1.63;0.70;;;;;;;25.15;15.31;101032.28;5024792;28;20026;-76
2022/04/14 08:37:31;;;;;;;1.30;0.60;;;;;;;25.15;15.20;101032.28;5016429;28;20104;-75
2022/04/14 08:39:57;;;;;;;1.17;0.80;;;;;;;25.13;15.34;101026.25;5015882;28;20546;-76
2022/04/14 08:42:25;;;;;;;1.48;0.88;;;;;;;25.15;14.92;101036.91;5015873;28;20110;-76
2022/04/14 08:44:55;;;;;;;0.70;0.50;;;;;;;25.10;15.33;101033.06;5015595;28;20030;-77
2022/04/14 08:47:21;;;;;;;0.82;0.47;;;;;;;25.17;15.00;101037.47;4999106;28;20026;-76
2022/04/14 08:49:48;;;;;;;0.52;0.40;;;;;;;25.14;15.08;101036.09;5015075;28;20384;-76
2022/04/14 08:52:15;;;;;;;0.50;0.40;;;;;;;25.18;15.00;101036.38;5015098;28;20022;-76
2022/04/14 08:54:43;;;;;;;0.30;0.30;;;;;;;25.10;14.78;101035.81;5016331;28;20032;-77
2022/04/14 08:57:13;;;;;;;0.70;0.50;;;;;;;25.13;14.76;101037.19;5014467;28;20064;-77
2022/04/14 08:59:39;;;;;;;0.30;0.30;;;;;;;25.13;14.95;101039.94;5014404;28;20046;-76
2022/04/14 09:02:05;;;;;;;0.50;0.40;;;;;;;25.15;15.05;101040.47;5014492;28;20044;-76
2022/04/14 09:04:31;;;;;;;1.08;0.50;;;;;;;25.16;14.80;101039.38;5014122;28;20487;-76
2022/04/14 09:06:56;;;;;;;0.43;0.30;;;;;;;25.17;14.82;101053.88;5015619;28;20030;-76
2022/04/14 09:09:24;;;;;;;0.40;0.30;;;;;;;25.15;14.71;101047.84;5015327;28;20423;-76
2022/04/14 09:11:50;;;;;;;1.77;0.30;;;;;;;25.16;15.14;101053.03;5015765;28;20102;-77
2022/04/14 09:14:15;;;;;;;0.90;0.40;;;;;;;25.19;14.84;101049.78;5015280;28;20337;-76
2022/04/14 09:16:41;;;;;;;0.98;0.20;;;;;;;25.15;14.88;101048.69;5015355;28;20140;-76
2022/04/14 09:19:06;;;;;;;0.30;0.30;;;;;;;25.15;15.05;101040.47;5013951;28;20034;-77
2022/04/14 09:21:32;;;;;;;0.30;0.30;;;;;;;25.16;15.33;101044.84;5015822;28;20026;-76
2022/04/14 09:23:58;;;;;;;0.40;0.20;;;;;;;25.21;15.57;101031.19;5014315;28;20077;-77
2022/04/14 09:26:23;;;;;;;0.30;0.30;;;;;;;25.21;15.62;101036.66;5015338;28;20060;-76
2022/04/14 09:29:10;;;;;;;0.28;0.28;;;;;;;25.32;15.52;101037.53;5013816;28;20080;-76
2022/04/14 09:31:51;;;;;;;0.32;0.30;;;;;;;25.32;15.73;101036.69;5013757;28;20041;-77
2022/04/14 09:34:18;;;;;;;0.73;0.30;;;;;;;25.21;15.51;101041.31;5017414;28;20034;-76
2022/04/14 09:37:04;;;;;;;0.30;0.30;;;;;;;25.30;15.44;101047.91;5035551;28;20022;-76
2022/04/14 09:39:29;;;;;;;0.25;0.20;;;;;;;25.21;15.81;101047.59;5034662;28;20403;-75
2022/04/14 09:41:55;;;;;;;0.20;0.20;;;;;;;25.18;15.62;101045.41;5035297;28;20046;-76
2022/04/14 09:44:20;;;;;;;0.38;0.30;;;;;;;25.20;15.70;101045.97;5033377;28;20403;-76
2022/04/14 09:46:46;;;;;;;0.20;0.20;;;;;;;25.00;16.28;101034.97;5033327;28;20431;-76
2022/04/14 09:49:15;;;;;;;1.00;0.20;;;;;;;24.99;16.24;101049.72;5034033;28;20447;-77
2022/04/14 09:51:45;;;;;;;2.33;0.50;;;;;;;24.61;16.66;101044.38;5033956;28;20029;-76
2022/04/14 09:54:17;;;;;;;0.75;0.30;;;;;;;24.86;16.54;101045.59;5034662;28;20422;-76
2022/04/14 09:56:43;;;;;;;0.20;0.20;;;;;;;25.01;16.50;101042.06;5034643;28;20418;-76
2022/04/14 09:59:08;;;;;;;0.30;0.30;;;;;;;25.00;16.61;101040.44;5034463;28;20066;-76
2022/04/14 10:01:35;;;;;;;0.20;0.20;;;;;;;24.97;16.53;101035.50;5034004;28;20336;-77
2022/04/14 10:04:01;;;;;;;0.95;0.20;;;;;;;25.10;16.31;101035.00;5033882;28;20101;-77
2022/04/14 10:06:26;;;;;;;0.20;0.20;;;;;;;25.02;16.39;101033.59;5032464;28;20491;-77
2022/04/14 10:08:52;;;;;;;0.20;0.20;;;;;;;25.22;16.35;101037.50;5032866;28;20030;-77
2022/04/14 10:11:32;;;;;;;0.20;0.20;;;;;;;25.36;15.98;101035.09;5034203;28;20021;-77
2022/04/14 10:14:13;;;;;;;0.20;0.20;;;;;;;25.38;16.18;101030.97;5034123;28;20053;-77
2022/04/14 10:16:40;;;;;;;0.22;0.22;;;;;;;25.38;16.27;101027.44;5049093;28;20156;-77
2022/04/14 10:19:08;;;;;;;0.25;0.22;;;;;;;25.42;16.33;101023.88;5033845;28;20029;-77
2022/04/14 10:21:34;;;;;;;0.20;0.20;;;;;;;25.44;16.43;101023.59;5034113;28;20081;-77
2022/04/14 10:24:00;;;;;;;0.20;0.20;;;;;;;25.33;16.40;101027.41;5033859;28;20021;-77
2022/04/14 10:26:26;;;;;;;0.10;0.10;;;;;;;25.29;16.32;101022.47;5034003;28;20033;-77
2022/04/14 10:28:51;;;;;;;1.75;0.30;;;;;;;25.37;16.76;101029.34;5033374;28;20371;-77
2022/04/14 10:31:17;;;;;;;0.40;0.20;;;;;;;25.37;16.83;101028.50;5032460;28;20026;-77
2022/04/14 10:33:42;;;;;;;0.20;0.20;;;;;;;25.44;16.54;101029.06;5035100;28;20035;-78
2022/04/14 10:36:09;;;;;;;0.70;0.30;;;;;;;25.45;16.38;101026.06;5017361;28;20478;-78
2022/04/14 10:38:35;;;;;;;0.20;0.20;;;;;;;25.30;17.31;101026.03;5016819;28;20046;-77
2022/04/14 10:41:05;;;;;;;0.30;0.30;;;;;;;25.41;16.84;101014.03;4996725;28;20065;-76
2022/04/14 10:43:32;;;;;;;0.45;0.30;;;;;;;25.40;16.81;101014.28;5014156;28;20017;-76
2022/04/14 10:45:58;;;;;;;0.32;0.30;;;;;;;25.38;16.83;101009.09;5012846;28;20037;-76
2022/04/14 10:48:31;;;;;;;0.30;0.30;;;;;;;25.43;16.85;101013.75;5012479;28;20417;-76
2022/04/14 10:51:19;;;;;;;0.82;0.40;;;;;;;25.47;16.80;101010.22;5012673;28;20053;-76
2022/04/14 10:54:07;;;;;;;0.20;0.20;;;;;;;25.45;16.91;101008.81;5016177;28;20045;-76
2022/04/14 10:56:41;;;;;;;0.30;0.30;;;;;;;25.38;16.82;101009.09;5018685;28;20032;-75
2022/04/14 10:59:11;;;;;;;1.10;0.28;;;;;;;25.42;16.59;101003.88;5016303;28;20045;-76
2022/04/14 11:01:45;;;;;;;1.10;0.28;;;;;;;25.42;16.74;101014.84;5016071;28;20105;-76
2022/04/14 11:04:26;;;;;;;0.20;0.20;;;;;;;25.42;16.62;101006.63;5018044;28;20057;-77
2022/04/14 11:07:01;;;;;;;0.22;0.20;;;;;;;25.40;16.58;101008.81;5014516;28;20033;-76
2022/04/14 11:09:43;;;;;;;0.30;0.30;;;;;;;25.33;16.92;101013.75;5013512;28;20105;-77
2022/04/14 11:12:12;;;;;;;0.32;0.30;;;;;;;25.25;16.90;101018.66;5018679;28;20041;-78
2022/04/14 11:14:43;;;;;;;1.63;0.30;;;;;;;25.34;17.05;101018.94;5016052;28;20029;-77
2022/04/14 11:17:37;;;;;;;1.58;0.30;;;;;;;25.34;17.18;101024.41;5015031;28;20048;-77
2022/04/14 11:20:28;;;;;;;0.20;0.20;;;;;;;25.38;16.99;101016.47;5014177;28;20088;-76
2022/04/14 11:23:11;;;;;;;0.25;0.22;;;;;;;25.39;16.95;101015.38;5014442;28;20034;-76